createdAt,value
2019-02-09T00:00:20.635Z,0.00
2019-02-09T00:01:20.628Z,0.00
2019-02-09T00:02:20.632Z,0.00
2019-02-09T00:03:20.605Z,0.00
2019-02-09T00:04:20.596Z,0.00
2019-02-09T00:05:20.590Z,0.00
2019-02-09T00:06:20.573Z,0.00
2019-02-09T00:07:20.589Z,0.00
2019-02-09T00:08:20.546Z,0.00
2019-02-09T00:09:20.537Z,0.00
2019-02-09T00:10:20.531Z,0.00
2019-02-09T00:11:20.520Z,0.00
2019-02-09T00:12:20.502Z,0.00
2019-02-09T00:13:20.517Z,0.00
2019-02-09T00:14:20.483Z,0.00
2019-02-09T00:15:20.477Z,0.00
2019-02-09T00:16:20.465Z,0.00
2019-02-09T00:17:20.454Z,0.00
2019-02-09T00:18:20.441Z,0.00
2019-02-09T00:19:20.450Z,0.00
2019-02-09T00:20:20.419Z,0.00
2019-02-09T00:21:20.410Z,0.00
2019-02-09T00:22:20.395Z,0.00
2019-02-09T00:23:20.413Z,0.00
2019-02-09T00:24:20.378Z,0.00
2019-02-09T00:25:20.371Z,0.00
2019-02-09T00:26:20.354Z,0.00
2019-02-09T00:27:20.339Z,0.00
2019-02-09T00:28:20.351Z,0.00
2019-02-09T00:29:20.322Z,0.00
2019-02-09T00:30:20.331Z,0.00
2019-02-09T00:31:20.302Z,0.00
2019-02-09T00:32:20.289Z,0.00
2019-02-09T00:33:20.277Z,0.00
2019-02-09T00:34:20.283Z,0.00
2019-02-09T00:35:20.251Z,0.00
2019-02-09T00:36:20.266Z,0.00
2019-02-09T00:37:20.234Z,0.00
2019-02-09T00:38:20.246Z,0.00
2019-02-09T00:39:20.215Z,0.00
2019-02-09T00:40:20.198Z,0.00
2019-02-09T00:41:20.190Z,0.00
2019-02-09T00:42:20.188Z,0.00
2019-02-09T00:43:20.203Z,0.00
2019-02-09T00:44:20.155Z,0.00
2019-02-09T00:45:20.145Z,0.00
2019-02-09T00:46:20.138Z,0.00
2019-02-09T00:47:20.121Z,0.00
2019-02-09T00:48:20.120Z,0.00
2019-02-09T00:49:20.127Z,0.00
2019-02-09T00:50:20.102Z,0.00
2019-02-09T00:51:20.084Z,0.00
2019-02-09T00:52:20.067Z,0.00
2019-02-09T00:53:20.089Z,0.00
2019-02-09T00:54:20.049Z,0.00
2019-02-09T00:55:20.038Z,0.00
2019-02-09T00:56:20.031Z,0.00
2019-02-09T00:57:20.016Z,0.00
2019-02-09T00:58:20.005Z,0.00
2019-02-09T00:59:20.010Z,0.00
2019-02-09T01:00:19.988Z,0.00
2019-02-09T01:01:19.974Z,0.00
2019-02-09T01:02:19.963Z,0.00
2019-02-09T01:03:19.954Z,0.00
2019-02-09T01:04:19.956Z,0.00
2019-02-09T01:05:19.932Z,0.00
2019-02-09T01:06:19.919Z,0.00
2019-02-09T01:07:19.906Z,0.00
2019-02-09T01:08:19.902Z,0.00
2019-02-09T01:09:19.904Z,0.00
2019-02-09T01:10:19.883Z,0.00
2019-02-09T01:11:19.870Z,0.00
2019-02-09T01:12:19.849Z,0.00
2019-02-09T01:13:19.861Z,0.00
2019-02-09T01:14:19.857Z,0.00
2019-02-09T01:15:19.824Z,0.00
2019-02-09T01:16:19.806Z,0.00
2019-02-09T01:17:19.799Z,0.00
2019-02-09T01:18:19.792Z,0.00
2019-02-09T01:19:19.780Z,0.00
2019-02-09T01:20:19.787Z,0.00
2019-02-09T01:21:19.756Z,0.00
2019-02-09T01:22:19.746Z,0.00
2019-02-09T01:23:19.740Z,0.00
2019-02-09T01:24:19.722Z,0.00
2019-02-09T01:25:19.731Z,0.00
2019-02-09T01:26:19.704Z,0.00
2019-02-09T01:27:19.716Z,0.00
2019-02-09T01:28:19.691Z,0.00
2019-02-09T01:29:19.673Z,0.00
2019-02-09T01:30:19.666Z,0.00
2019-02-09T01:31:19.646Z,0.00
2019-02-09T01:32:19.662Z,0.00
2019-02-09T01:33:19.675Z,0.00
2019-02-09T01:34:19.621Z,0.00
2019-02-09T01:35:19.617Z,0.00
2019-02-09T01:36:19.590Z,0.00
2019-02-09T01:37:19.581Z,0.00
2019-02-09T01:38:19.571Z,0.00
2019-02-09T01:39:19.577Z,0.00
2019-02-09T01:40:19.554Z,0.00
2019-02-09T01:41:19.540Z,0.00
2019-02-09T01:42:19.529Z,0.00
2019-02-09T01:43:19.538Z,0.00
2019-02-09T01:44:19.504Z,0.00
2019-02-09T01:45:19.493Z,0.00
2019-02-09T01:46:19.490Z,0.00
2019-02-09T01:47:19.480Z,0.00
2019-02-09T01:48:19.476Z,0.00
2019-02-09T01:49:19.450Z,0.00
2019-02-09T01:50:19.460Z,0.00
2019-02-09T01:51:19.429Z,0.00
2019-02-09T01:52:19.422Z,0.00
2019-02-09T01:53:19.428Z,0.00
2019-02-09T01:54:19.400Z,0.00
2019-02-09T01:55:19.393Z,0.00
2019-02-09T01:56:19.392Z,0.00
2019-02-09T01:57:19.363Z,0.00
2019-02-09T01:58:19.354Z,0.00
2019-02-09T01:59:19.344Z,0.00
2019-02-09T02:00:19.335Z,0.00
2019-02-09T02:01:19.341Z,0.00
2019-02-09T02:02:19.311Z,0.00
2019-02-09T02:03:19.302Z,0.00
2019-02-09T02:04:19.297Z,0.00
2019-02-09T02:05:19.289Z,0.00
2019-02-09T02:06:19.293Z,0.00
2019-02-09T02:07:19.256Z,0.00
2019-02-09T02:08:19.259Z,0.00
2019-02-09T02:09:19.235Z,0.00
2019-02-09T02:10:19.222Z,0.00
2019-02-09T02:11:19.231Z,0.00
2019-02-09T02:12:19.205Z,0.00
2019-02-09T02:13:19.213Z,0.00
2019-02-09T02:14:19.209Z,0.00
2019-02-09T02:15:19.174Z,0.00
2019-02-09T02:16:19.154Z,0.00
2019-02-09T02:17:19.146Z,0.00
2019-02-09T02:18:19.137Z,0.00
2019-02-09T02:19:19.157Z,0.00
2019-02-09T02:20:19.113Z,0.00
2019-02-09T02:21:19.124Z,0.00
2019-02-09T02:22:19.103Z,0.00
2019-02-09T02:23:19.077Z,0.00
2019-02-09T02:24:19.079Z,0.00
2019-02-09T02:25:19.063Z,0.00
2019-02-09T02:26:19.068Z,0.00
2019-02-09T02:27:19.045Z,0.00
2019-02-09T02:28:19.044Z,0.00
2019-02-09T02:29:19.017Z,0.00
2019-02-09T02:30:22.401Z,0.00
2019-02-09T02:31:18.992Z,0.00
2019-02-09T02:32:18.991Z,0.00
2019-02-09T02:33:18.993Z,0.00
2019-02-09T02:34:18.962Z,0.00
2019-02-09T02:35:18.950Z,0.00
2019-02-09T02:36:18.947Z,0.00
2019-02-09T02:37:18.949Z,0.00
2019-02-09T02:38:18.927Z,0.00
2019-02-09T02:39:18.915Z,0.00
2019-02-09T02:40:18.894Z,0.00
2019-02-09T02:41:18.894Z,0.00
2019-02-09T02:42:18.898Z,0.00
2019-02-09T02:43:18.874Z,0.00
2019-02-09T02:44:21.996Z,0.00
2019-02-09T02:45:18.841Z,0.00
2019-02-09T02:46:18.829Z,0.00
2019-02-09T02:47:18.843Z,0.00
2019-02-09T02:48:18.835Z,0.00
2019-02-09T02:49:18.806Z,0.00
2019-02-09T02:50:18.793Z,0.00
2019-02-09T02:51:18.777Z,0.00
2019-02-09T02:52:18.770Z,0.00
2019-02-09T02:53:18.786Z,0.00
2019-02-09T02:54:18.749Z,0.00
2019-02-09T02:55:18.745Z,0.00
2019-02-09T02:56:18.733Z,0.00
2019-02-09T02:57:18.729Z,0.00
2019-02-09T02:58:18.738Z,0.00
2019-02-09T02:59:18.698Z,0.00
2019-02-09T03:00:18.683Z,0.00
2019-02-09T03:01:18.675Z,0.00
2019-02-09T03:02:18.662Z,0.00
2019-02-09T03:03:18.650Z,0.00
2019-02-09T03:04:18.653Z,0.00
2019-02-09T03:05:18.623Z,0.00
2019-02-09T03:06:18.618Z,0.00
2019-02-09T03:07:18.626Z,0.00
2019-02-09T03:08:18.592Z,0.00
2019-02-09T03:09:18.578Z,0.00
2019-02-09T03:10:18.569Z,0.00
2019-02-09T03:11:18.591Z,0.00
2019-02-09T03:12:18.551Z,0.00
2019-02-09T03:13:18.542Z,0.00
2019-02-09T03:14:18.530Z,0.00
2019-02-09T03:15:18.522Z,0.00
2019-02-09T03:16:18.506Z,0.00
2019-02-09T03:17:18.520Z,0.00
2019-02-09T03:18:18.482Z,0.00
2019-02-09T03:19:19.215Z,0.00
2019-02-09T03:20:18.466Z,0.00
2019-02-09T03:21:18.462Z,0.00
2019-02-09T03:22:18.444Z,0.00
2019-02-09T03:23:18.454Z,0.00
2019-02-09T03:24:18.437Z,0.00
2019-02-09T03:25:18.422Z,0.00
2019-02-09T03:26:18.410Z,0.00
2019-02-09T03:27:18.397Z,0.00
2019-02-09T03:28:18.401Z,0.00
2019-02-09T03:29:18.365Z,0.00
2019-02-09T03:30:18.352Z,0.00
2019-02-09T03:31:18.343Z,0.00
2019-02-09T03:32:18.341Z,0.00
2019-02-09T03:33:18.329Z,0.00
2019-02-09T03:34:18.346Z,0.00
2019-02-09T03:35:18.305Z,0.00
2019-02-09T03:36:18.286Z,0.00
2019-02-09T03:37:18.275Z,0.00
2019-02-09T03:38:18.274Z,0.00
2019-02-09T03:39:18.282Z,0.00
2019-02-09T03:40:18.245Z,0.00
2019-02-09T03:41:18.249Z,0.00
2019-02-09T03:42:18.221Z,0.00
2019-02-09T03:43:18.230Z,0.00
2019-02-09T03:44:18.203Z,0.00
2019-02-09T03:45:18.194Z,0.00
2019-02-09T03:46:18.196Z,0.00
2019-02-09T03:47:18.169Z,0.00
2019-02-09T03:48:18.173Z,0.00
2019-02-09T03:49:18.170Z,0.00
2019-02-09T03:50:18.143Z,0.00
2019-02-09T03:51:18.143Z,0.00
2019-02-09T03:52:18.131Z,0.00
2019-02-09T03:53:18.102Z,0.00
2019-02-09T03:54:18.097Z,0.00
2019-02-09T03:55:18.083Z,0.00
2019-02-09T03:56:18.070Z,0.00
2019-02-09T03:57:18.075Z,0.00
2019-02-09T03:58:18.072Z,0.00
2019-02-09T03:59:18.037Z,0.00
2019-02-09T04:00:18.030Z,0.00
2019-02-09T04:01:18.023Z,0.00
2019-02-09T04:02:18.009Z,0.00
2019-02-09T04:03:17.996Z,0.00
2019-02-09T04:04:18.005Z,0.00
2019-02-09T04:05:17.969Z,0.00
2019-02-09T04:06:17.961Z,0.00
2019-02-09T04:07:17.949Z,0.00
2019-02-09T04:08:17.941Z,0.00
2019-02-09T04:09:17.955Z,0.00
2019-02-09T04:10:17.915Z,0.00
2019-02-09T04:11:17.907Z,0.00
2019-02-09T04:12:17.898Z,0.00
2019-02-09T04:13:17.893Z,0.00
2019-02-09T04:14:17.898Z,0.00
2019-02-09T04:15:17.871Z,0.00
2019-02-09T04:16:17.851Z,0.00
2019-02-09T04:17:17.842Z,0.00
2019-02-09T04:18:17.834Z,0.00
2019-02-09T04:19:17.845Z,0.00
2019-02-09T04:20:17.811Z,0.00
2019-02-09T04:21:17.804Z,0.00
2019-02-09T04:22:17.791Z,0.00
2019-02-09T04:23:17.778Z,0.00
2019-02-09T04:24:17.783Z,0.00
2019-02-09T04:25:17.755Z,0.00
2019-02-09T04:26:17.765Z,0.00
2019-02-09T04:27:17.736Z,0.00
2019-02-09T04:28:17.723Z,0.00
2019-02-09T04:29:17.730Z,0.00
2019-02-09T04:30:17.698Z,0.00
2019-02-09T04:31:17.688Z,0.00
2019-02-09T04:32:17.683Z,0.00
2019-02-09T04:33:17.672Z,0.00
2019-02-09T04:34:17.681Z,0.00
2019-02-09T04:35:17.648Z,0.00
2019-02-09T04:36:17.645Z,0.00
2019-02-09T04:37:17.621Z,0.00
2019-02-09T04:38:17.627Z,0.00
2019-02-09T04:39:17.627Z,0.00
2019-02-09T04:40:17.597Z,0.00
2019-02-09T04:41:17.585Z,0.00
2019-02-09T04:42:17.569Z,0.00
2019-02-09T04:43:17.580Z,0.00
2019-02-09T04:44:17.551Z,0.00
2019-02-09T04:45:17.598Z,0.00
2019-02-09T04:46:17.532Z,0.00
2019-02-09T04:47:17.523Z,0.00
2019-02-09T04:48:17.505Z,0.00
2019-02-09T04:49:17.492Z,0.00
2019-02-09T04:50:17.509Z,0.00
2019-02-09T04:51:17.471Z,0.00
2019-02-09T04:52:17.462Z,0.00
2019-02-09T04:53:17.457Z,0.00
2019-02-09T04:54:17.444Z,0.00
2019-02-09T04:55:17.453Z,0.00
2019-02-09T04:56:17.417Z,0.00
2019-02-09T04:57:17.405Z,0.00
2019-02-09T04:58:17.400Z,0.00
2019-02-09T04:59:17.387Z,0.00
2019-02-09T05:00:17.392Z,0.00
2019-02-09T05:01:17.381Z,0.00
2019-02-09T05:02:17.350Z,0.00
2019-02-09T05:03:17.342Z,0.00
2019-02-09T05:04:17.350Z,0.00
2019-02-09T05:05:17.327Z,0.00
2019-02-09T05:06:17.341Z,0.00
2019-02-09T05:07:17.302Z,0.00
2019-02-09T05:08:17.302Z,0.00
2019-02-09T05:09:17.277Z,0.00
2019-02-09T05:10:17.282Z,0.00
2019-02-09T05:11:17.256Z,0.00
2019-02-09T05:12:17.271Z,0.00
2019-02-09T05:13:17.239Z,0.00
2019-02-09T05:14:17.220Z,0.00
2019-02-09T05:15:17.213Z,0.00
2019-02-09T05:16:17.258Z,0.00
2019-02-09T05:17:17.194Z,0.00
2019-02-09T05:18:17.210Z,0.00
2019-02-09T05:19:17.173Z,0.00
2019-02-09T05:20:17.158Z,0.00
2019-02-09T05:21:17.144Z,0.00
2019-02-09T05:22:17.138Z,0.00
2019-02-09T05:23:17.128Z,0.00
2019-02-09T05:24:17.134Z,0.00
2019-02-09T05:25:17.113Z,0.00
2019-02-09T05:26:17.097Z,0.00
2019-02-09T05:27:17.083Z,0.00
2019-02-09T05:28:17.071Z,0.00
2019-02-09T05:29:17.076Z,0.00
2019-02-09T05:30:17.059Z,0.00
2019-02-09T05:31:22.811Z,0.00
2019-02-09T05:32:18.026Z,0.00
2019-02-09T05:33:17.016Z,0.00
2019-02-09T05:34:17.032Z,0.00
2019-02-09T05:35:17.013Z,0.00
2019-02-09T05:36:16.986Z,0.00
2019-02-09T05:37:16.981Z,0.00
2019-02-09T05:38:16.970Z,0.00
2019-02-09T05:39:16.971Z,0.00
2019-02-09T05:40:16.951Z,0.00
2019-02-09T05:41:16.930Z,0.00
2019-02-09T05:42:16.918Z,0.00
2019-02-09T05:43:16.909Z,0.00
2019-02-09T05:44:16.923Z,0.00
2019-02-09T05:45:16.893Z,0.00
2019-02-09T05:46:16.879Z,0.00
2019-02-09T05:47:16.866Z,0.00
2019-02-09T05:48:16.861Z,0.00
2019-02-09T05:49:16.873Z,0.00
2019-02-09T05:50:16.840Z,0.00
2019-02-09T05:51:16.824Z,0.00
2019-02-09T05:52:16.830Z,0.00
2019-02-09T05:53:16.805Z,0.00
2019-02-09T05:54:16.803Z,0.00
2019-02-09T05:55:16.779Z,0.00
2019-02-09T05:56:16.768Z,0.00
2019-02-09T05:57:16.760Z,0.00
2019-02-09T05:58:16.769Z,0.00
2019-02-09T05:59:16.762Z,0.00
2019-02-09T06:00:16.723Z,0.00
2019-02-09T06:01:16.728Z,0.00
2019-02-09T06:02:16.710Z,0.00
2019-02-09T06:03:16.699Z,0.00
2019-02-09T06:04:16.680Z,0.00
2019-02-09T06:05:16.667Z,0.00
2019-02-09T06:06:16.673Z,0.00
2019-02-09T06:07:16.648Z,0.00
2019-02-09T06:08:16.639Z,0.00
2019-02-09T06:09:16.631Z,0.00
2019-02-09T06:10:16.634Z,0.00
2019-02-09T06:11:16.630Z,0.00
2019-02-09T06:12:16.594Z,0.00
2019-02-09T06:13:16.585Z,0.00
2019-02-09T06:14:16.589Z,0.00
2019-02-09T06:15:16.560Z,0.00
2019-02-09T06:16:16.555Z,0.00
2019-02-09T06:17:16.562Z,0.00
2019-02-09T06:18:16.551Z,0.00
2019-02-09T06:19:16.517Z,0.00
2019-02-09T06:20:16.511Z,0.00
2019-02-09T06:21:16.501Z,0.00
2019-02-09T06:22:16.490Z,0.00
2019-02-09T06:23:16.477Z,0.00
2019-02-09T06:24:16.490Z,0.00
2019-02-09T06:25:16.460Z,4.00
2019-02-09T06:26:16.441Z,4.00
2019-02-09T06:27:16.431Z,4.00
2019-02-09T06:28:16.442Z,4.00
2019-02-09T06:29:16.412Z,4.00
2019-02-09T06:30:16.403Z,4.00
2019-02-09T06:31:16.402Z,8.00
2019-02-09T06:32:16.380Z,8.00
2019-02-09T06:33:16.380Z,8.00
2019-02-09T06:34:16.359Z,12.00
2019-02-09T06:35:16.347Z,12.00
2019-02-09T06:36:16.333Z,16.00
2019-02-09T06:37:16.322Z,16.00
2019-02-09T06:38:16.332Z,24.00
2019-02-09T06:39:16.302Z,28.00
2019-02-09T06:40:16.299Z,32.00
2019-02-09T06:41:16.287Z,28.00
2019-02-09T06:42:16.274Z,36.00
2019-02-09T06:43:16.292Z,40.00
2019-02-09T06:44:16.251Z,44.00
2019-02-09T06:45:16.236Z,52.00
2019-02-09T06:46:16.223Z,60.00
2019-02-09T06:47:16.233Z,56.00
2019-02-09T06:48:16.234Z,64.00
2019-02-09T06:49:16.197Z,76.00
2019-02-09T06:50:16.182Z,84.00
2019-02-09T06:51:16.174Z,112.00
2019-02-09T06:52:16.190Z,128.00
2019-02-09T06:53:16.155Z,156.00
2019-02-09T06:54:16.168Z,184.00
2019-02-09T06:55:16.133Z,208.00
2019-02-09T06:56:16.121Z,228.00
2019-02-09T06:57:16.103Z,240.00
2019-02-09T06:58:16.105Z,252.00
2019-02-09T06:59:16.105Z,200.00
2019-02-09T07:00:16.076Z,140.00
2019-02-09T07:01:16.066Z,180.00
2019-02-09T07:02:16.060Z,180.00
2019-02-09T07:03:16.044Z,288.00
2019-02-09T07:04:16.068Z,368.00
2019-02-09T07:05:16.021Z,440.00
2019-02-09T07:06:16.018Z,528.00
2019-02-09T07:07:16.001Z,580.00
2019-02-09T07:08:16.815Z,584.00
2019-02-09T07:09:15.975Z,672.00
2019-02-09T07:10:15.981Z,692.00
2019-02-09T07:11:15.958Z,720.00
2019-02-09T07:12:15.978Z,716.00
2019-02-09T07:13:15.974Z,708.00
2019-02-09T07:14:15.956Z,420.00
2019-02-09T07:15:15.913Z,300.00
2019-02-09T07:16:15.918Z,368.00
2019-02-09T07:17:15.889Z,220.00
2019-02-09T07:18:15.876Z,244.00
2019-02-09T07:19:15.871Z,308.00
2019-02-09T07:20:15.865Z,408.00
2019-02-09T07:21:15.873Z,608.00
2019-02-09T07:22:15.833Z,796.00
2019-02-09T07:23:15.827Z,884.00
2019-02-09T07:24:15.821Z,896.00
2019-02-09T07:25:15.814Z,912.00
2019-02-09T07:26:15.828Z,928.00
2019-02-09T07:27:15.797Z,952.00
2019-02-09T07:28:15.770Z,996.00
2019-02-09T07:29:15.758Z,1012.00
2019-02-09T07:30:15.747Z,1004.00
2019-02-09T07:31:15.737Z,1012.00
2019-02-09T07:32:15.762Z,992.00
2019-02-09T07:33:15.757Z,900.00
2019-02-09T07:34:15.710Z,852.00
2019-02-09T07:35:15.701Z,952.00
2019-02-09T07:36:15.686Z,972.00
2019-02-09T07:37:15.672Z,992.00
2019-02-09T07:38:15.668Z,1092.00
2019-02-09T07:39:15.673Z,1188.00
2019-02-09T07:40:15.649Z,1164.00
2019-02-09T07:41:15.629Z,1344.00
2019-02-09T07:42:15.619Z,1408.00
2019-02-09T07:43:15.608Z,1072.00
2019-02-09T07:44:15.617Z,752.00
2019-02-09T07:45:15.599Z,644.00
2019-02-09T07:46:15.590Z,868.00
2019-02-09T07:47:15.569Z,1384.00
2019-02-09T07:48:15.565Z,1336.00
2019-02-09T07:49:15.563Z,1080.00
2019-02-09T07:50:15.541Z,984.00
2019-02-09T07:51:15.524Z,1848.00
2019-02-09T07:52:15.516Z,3088.00
2019-02-09T07:53:15.503Z,3192.00
2019-02-09T07:54:15.505Z,2524.00
2019-02-09T07:55:15.481Z,2428.00
2019-02-09T07:56:15.469Z,2364.00
2019-02-09T07:57:15.461Z,2160.00
2019-02-09T07:58:15.454Z,2000.00
2019-02-09T07:59:15.467Z,1900.00
2019-02-09T08:00:15.423Z,1816.00
2019-02-09T08:01:15.410Z,1792.00
2019-02-09T08:02:15.423Z,1748.00
2019-02-09T08:03:15.391Z,1716.00
2019-02-09T08:04:15.411Z,1780.00
2019-02-09T08:05:15.380Z,1864.00
2019-02-09T08:06:15.363Z,1952.00
2019-02-09T08:07:15.352Z,1976.00
2019-02-09T08:08:15.335Z,2080.00
2019-02-09T08:09:15.335Z,2064.00
2019-02-09T08:10:15.350Z,2008.00
2019-02-09T08:11:15.316Z,2088.00
2019-02-09T08:12:15.311Z,2232.00
2019-02-09T08:13:15.304Z,2256.00
2019-02-09T08:14:15.279Z,2332.00
2019-02-09T08:15:15.263Z,2428.00
2019-02-09T08:16:15.276Z,2420.00
2019-02-09T08:17:15.254Z,2256.00
2019-02-09T08:18:15.259Z,2360.00
2019-02-09T08:19:15.220Z,2268.00
2019-02-09T08:20:15.210Z,2196.00
2019-02-09T08:21:15.200Z,2496.00
2019-02-09T08:22:15.189Z,2744.00
2019-02-09T08:23:15.173Z,3128.00
2019-02-09T08:24:15.191Z,4480.00
2019-02-09T08:25:15.192Z,4700.00
2019-02-09T08:26:15.145Z,3144.00
2019-02-09T08:27:15.179Z,2952.00
2019-02-09T08:28:15.142Z,2644.00
2019-02-09T08:29:15.111Z,2556.00
2019-02-09T08:30:15.103Z,2556.00
2019-02-09T08:31:15.094Z,2552.00
2019-02-09T08:32:15.074Z,2820.00
2019-02-09T08:33:15.084Z,3132.00
2019-02-09T08:34:15.058Z,2536.00
2019-02-09T08:35:15.060Z,2452.00
2019-02-09T08:36:15.042Z,2380.00
2019-02-09T08:37:15.024Z,2520.00
2019-02-09T08:38:15.032Z,2660.00
2019-02-09T08:39:15.010Z,2768.00
2019-02-09T08:40:15.005Z,2904.00
2019-02-09T08:41:14.980Z,3248.00
2019-02-09T08:42:14.977Z,3300.00
2019-02-09T08:43:14.961Z,3220.00
2019-02-09T08:44:14.945Z,3236.00
2019-02-09T08:45:14.954Z,3196.00
2019-02-09T08:46:14.926Z,3012.00
2019-02-09T08:47:14.911Z,3332.00
2019-02-09T08:48:14.940Z,3360.00
2019-02-09T08:49:14.943Z,3356.00
2019-02-09T08:50:14.901Z,3380.00
2019-02-09T08:51:14.875Z,3468.00
2019-02-09T08:52:14.858Z,3204.00
2019-02-09T08:53:14.868Z,3368.00
2019-02-09T08:54:14.859Z,3196.00
2019-02-09T08:55:14.826Z,3328.00
2019-02-09T08:56:14.820Z,3160.00
2019-02-09T08:57:14.814Z,3192.00
2019-02-09T08:58:14.826Z,3568.00
2019-02-09T08:59:14.802Z,3072.00
2019-02-09T09:00:14.797Z,3420.00
2019-02-09T09:01:14.810Z,3496.00
2019-02-09T09:02:20.421Z,3588.00
2019-02-09T09:03:15.745Z,3516.00
2019-02-09T09:04:14.748Z,3576.00
2019-02-09T09:05:14.720Z,3468.00
2019-02-09T09:06:14.713Z,3324.00
2019-02-09T09:07:14.696Z,3956.00
2019-02-09T09:08:14.694Z,4536.00
2019-02-09T09:09:14.728Z,3436.00
2019-02-09T09:10:14.722Z,3844.00
2019-02-09T09:11:15.074Z,3648.00
2019-02-09T09:12:14.641Z,3724.00
2019-02-09T09:13:14.644Z,3788.00
2019-02-09T09:14:14.770Z,3620.00
2019-02-09T09:15:14.614Z,3772.00
2019-02-09T09:16:14.597Z,3996.00
2019-02-09T09:17:14.591Z,4092.00
2019-02-09T09:18:14.580Z,3836.00
2019-02-09T09:19:14.584Z,3880.00
2019-02-09T09:20:14.572Z,3812.00
2019-02-09T09:21:14.546Z,3892.00
2019-02-09T09:22:14.536Z,3900.00
2019-02-09T09:23:14.528Z,4144.00
2019-02-09T09:24:14.532Z,4808.00
2019-02-09T09:25:14.501Z,4732.00
2019-02-09T09:26:14.491Z,5940.00
2019-02-09T09:27:14.478Z,7572.00
2019-02-09T09:28:14.486Z,6772.00
2019-02-09T09:29:14.508Z,5188.00
2019-02-09T09:30:15.702Z,4012.00
2019-02-09T09:31:14.573Z,4064.00
2019-02-09T09:32:14.482Z,4148.00
2019-02-09T09:33:14.471Z,4096.00
2019-02-09T09:34:14.485Z,4380.00
2019-02-09T09:35:14.483Z,4660.00
2019-02-09T09:36:14.415Z,4000.00
2019-02-09T09:37:14.389Z,4680.00
2019-02-09T09:38:14.402Z,4976.00
2019-02-09T09:39:14.380Z,4488.00
2019-02-09T09:40:14.425Z,4676.00
2019-02-09T09:41:14.370Z,4448.00
2019-02-09T09:42:14.361Z,3600.00
2019-02-09T09:43:14.334Z,4100.00
2019-02-09T09:44:14.365Z,5480.00
2019-02-09T09:45:14.357Z,7304.00
2019-02-09T09:46:14.337Z,8936.00
2019-02-09T09:47:14.316Z,10824.00
2019-02-09T09:48:14.292Z,10448.00
2019-02-09T09:49:14.281Z,10056.00
2019-02-09T09:50:14.306Z,7812.00
2019-02-09T09:51:14.301Z,7928.00
2019-02-09T09:52:14.345Z,8272.00
2019-02-09T09:53:14.230Z,7636.00
2019-02-09T09:54:14.215Z,7024.00
2019-02-09T09:55:14.257Z,5544.00
2019-02-09T09:56:14.407Z,6980.00
2019-02-09T09:57:14.192Z,7876.00
2019-02-09T09:58:14.182Z,7208.00
2019-02-09T09:59:14.132Z,8512.00
2019-02-09T10:00:14.175Z,9528.00
2019-02-09T10:01:14.139Z,8576.00
2019-02-09T10:02:14.098Z,6700.00
2019-02-09T10:03:14.126Z,7196.00
2019-02-09T10:04:14.124Z,7920.00
2019-02-09T10:05:14.087Z,7192.00
2019-02-09T10:06:14.059Z,7236.00
2019-02-09T10:07:14.064Z,7332.00
2019-02-09T10:08:14.043Z,6984.00
2019-02-09T10:09:14.057Z,8748.00
2019-02-09T10:10:14.060Z,9924.00
2019-02-09T10:11:14.018Z,8928.00
2019-02-09T10:12:14.022Z,8596.00
2019-02-09T10:13:13.999Z,9752.00
2019-02-09T10:14:14.001Z,9760.00
2019-02-09T10:15:13.992Z,9416.00
2019-02-09T10:16:14.008Z,7804.00
2019-02-09T10:17:13.969Z,7076.00
2019-02-09T10:18:13.965Z,6644.00
2019-02-09T10:19:13.982Z,5888.00
2019-02-09T10:20:13.975Z,5972.00
2019-02-09T10:21:13.940Z,5664.00
2019-02-09T10:22:13.920Z,5636.00
2019-02-09T10:23:13.895Z,6876.00
2019-02-09T10:24:13.913Z,8444.00
2019-02-09T10:25:13.949Z,9588.00
2019-02-09T10:26:13.878Z,10136.00
2019-02-09T10:27:13.833Z,11348.00
2019-02-09T10:28:13.813Z,12292.00
2019-02-09T10:29:13.806Z,13904.00
2019-02-09T10:30:13.795Z,14816.00
2019-02-09T10:31:13.818Z,10048.00
2019-02-09T10:32:13.829Z,9288.00
2019-02-09T10:33:13.809Z,10308.00
2019-02-09T10:34:13.792Z,11736.00
2019-02-09T10:35:13.762Z,12988.00
2019-02-09T10:36:13.813Z,15416.00
2019-02-09T10:37:13.766Z,12348.00
2019-02-09T10:38:13.739Z,10192.00
2019-02-09T10:39:13.744Z,10264.00
2019-02-09T10:40:13.716Z,8072.00
2019-02-09T10:41:13.693Z,7652.00
2019-02-09T10:42:13.712Z,7368.00
2019-02-09T10:43:13.678Z,8632.00
2019-02-09T10:44:13.721Z,9144.00
2019-02-09T10:45:13.632Z,8860.00
2019-02-09T10:46:13.640Z,10876.00
2019-02-09T10:47:13.613Z,16416.00
2019-02-09T10:48:13.595Z,16384.00
2019-02-09T10:49:13.587Z,14948.00
2019-02-09T10:50:13.578Z,13648.00
2019-02-09T10:51:13.591Z,15648.00
2019-02-09T10:52:13.555Z,16576.00
2019-02-09T10:53:13.544Z,14812.00
2019-02-09T10:54:13.578Z,14180.00
2019-02-09T10:55:13.518Z,11404.00
2019-02-09T10:56:13.514Z,9128.00
2019-02-09T10:57:13.519Z,9568.00
2019-02-09T10:58:13.492Z,10460.00
2019-02-09T10:59:13.484Z,12792.00
2019-02-09T11:00:13.483Z,11572.00
2019-02-09T11:01:13.462Z,10932.00
2019-02-09T11:02:13.477Z,10824.00
2019-02-09T11:03:13.443Z,12880.00
2019-02-09T11:04:13.446Z,14416.00
2019-02-09T11:05:13.434Z,14292.00
2019-02-09T11:06:13.402Z,12356.00
2019-02-09T11:07:13.392Z,10376.00
2019-02-09T11:08:13.385Z,9996.00
2019-02-09T11:09:13.390Z,12144.00
2019-02-09T11:10:13.391Z,15576.00
2019-02-09T11:11:13.353Z,13880.00
2019-02-09T11:12:13.352Z,13052.00
2019-02-09T11:13:13.326Z,12396.00
2019-02-09T11:14:13.367Z,11392.00
2019-02-09T11:15:13.329Z,8416.00
2019-02-09T11:16:13.298Z,6332.00
2019-02-09T11:17:13.287Z,9212.00
2019-02-09T11:18:13.275Z,9924.00
2019-02-09T11:19:13.274Z,10044.00
2019-02-09T11:20:13.284Z,8368.00
2019-02-09T11:21:13.240Z,9224.00
2019-02-09T11:22:13.232Z,8008.00
2019-02-09T11:23:13.241Z,9860.00
2019-02-09T11:24:13.206Z,10264.00
2019-02-09T11:25:13.196Z,8652.00
2019-02-09T11:26:13.203Z,11032.00
2019-02-09T11:27:13.449Z,11284.00
2019-02-09T11:28:13.187Z,7004.00
2019-02-09T11:29:13.159Z,7228.00
2019-02-09T11:30:13.143Z,6768.00
2019-02-09T11:31:13.134Z,8936.00
2019-02-09T11:32:13.119Z,7432.00
2019-02-09T11:33:13.128Z,9240.00
2019-02-09T11:34:13.098Z,8664.00
2019-02-09T11:35:13.084Z,8732.00
2019-02-09T11:36:13.112Z,10032.00
2019-02-09T11:37:13.067Z,10212.00
2019-02-09T11:38:13.072Z,10220.00
2019-02-09T11:39:13.040Z,10372.00
2019-02-09T11:40:13.045Z,12020.00
2019-02-09T11:41:13.023Z,13212.00
2019-02-09T11:42:13.023Z,10136.00
2019-02-09T11:43:13.096Z,9564.00
2019-02-09T11:44:13.003Z,12196.00
2019-02-09T11:45:12.982Z,10924.00
2019-02-09T11:46:12.969Z,12392.00
2019-02-09T11:47:12.953Z,10260.00
2019-02-09T11:48:12.953Z,8920.00
2019-02-09T11:49:12.959Z,8196.00
2019-02-09T11:50:12.924Z,6156.00
2019-02-09T11:51:12.918Z,7880.00
2019-02-09T11:52:12.909Z,7868.00
2019-02-09T11:53:13.257Z,6752.00
2019-02-09T11:54:13.182Z,5808.00
2019-02-09T11:55:12.894Z,4876.00
2019-02-09T11:56:12.858Z,4744.00
2019-02-09T11:57:12.864Z,5644.00
2019-02-09T11:58:12.836Z,5260.00
2019-02-09T11:59:12.822Z,5068.00
2019-02-09T12:00:12.819Z,5284.00
2019-02-09T12:01:12.821Z,5256.00
2019-02-09T12:02:12.793Z,5476.00
2019-02-09T12:03:14.961Z,5700.00
2019-02-09T12:04:12.770Z,4376.00
2019-02-09T12:05:12.770Z,4000.00
2019-02-09T12:06:12.792Z,3828.00
2019-02-09T12:07:12.735Z,3848.00
2019-02-09T12:08:12.748Z,3864.00
2019-02-09T12:09:12.717Z,3896.00
2019-02-09T12:10:12.703Z,4436.00
2019-02-09T12:11:12.697Z,4304.00
2019-02-09T12:12:12.687Z,4584.00
2019-02-09T12:13:12.690Z,5100.00
2019-02-09T12:14:12.663Z,5424.00
2019-02-09T12:15:12.653Z,5888.00
2019-02-09T12:16:12.636Z,7056.00
2019-02-09T12:17:12.647Z,8628.00
2019-02-09T12:18:12.664Z,8612.00
2019-02-09T12:19:12.606Z,7056.00
2019-02-09T12:20:12.605Z,7036.00
2019-02-09T12:21:12.587Z,7376.00
2019-02-09T12:22:12.612Z,6404.00
2019-02-09T12:23:12.569Z,8104.00
2019-02-09T12:24:12.548Z,8048.00
2019-02-09T12:25:12.540Z,9680.00
2019-02-09T12:26:12.533Z,11084.00
2019-02-09T12:27:12.525Z,7576.00
2019-02-09T12:28:12.525Z,8724.00
2019-02-09T12:29:12.499Z,8564.00
2019-02-09T12:30:12.490Z,9376.00
2019-02-09T12:31:12.473Z,8416.00
2019-02-09T12:32:12.470Z,8708.00
2019-02-09T12:33:12.495Z,8336.00
2019-02-09T12:34:12.486Z,8180.00
2019-02-09T12:35:12.435Z,7604.00
2019-02-09T12:36:12.446Z,6632.00
2019-02-09T12:37:12.411Z,7408.00
2019-02-09T12:38:12.427Z,7988.00
2019-02-09T12:39:12.431Z,7108.00
2019-02-09T12:40:12.381Z,6392.00
2019-02-09T12:41:12.370Z,6332.00
2019-02-09T12:42:12.360Z,6432.00